Time;durP1;ratioP1;P1;durP2;ratioP2;P2;SDS_P1;SDS_P2;PMS_P1;PMS_P2;Temp;Humidity;BMP_temperature;BMP_pressure;BME280_temperature;BME280_humidity;BME280_pressure;Samples;Min_cycle;Max_cycle;Signal;HPM_P1;HPM_P2
2021/05/13 00:01:35;;;;;;;1.80;1.70;;;;;;;19.56;74.05;96752.22;5010218;28;20293;-64
2021/05/13 00:04:02;;;;;;;1.70;1.60;;;;;;;19.57;74.09;96745.47;4993578;28;20202;-64
2021/05/13 00:06:28;;;;;;;1.70;1.60;;;;;;;19.58;74.21;96757.38;4995401;28;20237;-64
2021/05/13 00:08:58;;;;;;;1.50;1.40;;;;;;;16.80;73.52;96272.66;4993039;28;20253;-66
2021/05/13 00:11:33;;;;;;;1.80;1.70;;;;;;;19.55;74.18;96742.88;5012809;28;20198;-65
2021/05/13 00:14:00;;;;;;;2.17;1.60;;;;;;;19.55;74.11;96740.31;5009178;28;20194;-65
2021/05/13 00:16:29;;;;;;;1.70;1.60;;;;;;;19.56;74.09;96741.16;5010384;28;20647;-65
2021/05/13 00:19:01;;;;;;;2.03;1.80;;;;;;;19.57;74.18;96737.81;4992889;28;20218;-65
2021/05/13 00:21:28;;;;;;;1.80;1.70;;;;;;;15.33;73.77;96076.53;4991980;28;20647;-65
2021/05/13 00:23:55;;;;;;;1.77;1.67;;;;;;;19.56;73.93;96739.50;5009949;28;20276;-65
2021/05/13 00:26:41;;;;;;;2.10;1.90;;;;;;;19.57;74.23;96737.81;5009612;28;20199;-64
2021/05/13 00:29:09;;;;;;;1.80;1.70;;;;;;;19.57;74.05;96735.25;4996324;28;20251;-64
2021/05/13 00:31:36;;;;;;;1.60;1.50;;;;;;;19.56;74.16;96734.41;5009226;28;20622;-65
2021/05/13 00:34:03;;;;;;;1.97;1.87;;;;;;;19.57;74.13;96727.63;4996518;28;20746;-65
2021/05/13 00:36:34;;;;;;;2.00;1.80;;;;;;;16.86;73.68;96262.69;4990610;28;20226;-66
2021/05/13 00:39:05;;;;;;;1.73;1.63;;;;;;;19.57;74.00;96722.53;5009980;28;20623;-66
2021/05/13 00:41:32;;;;;;;1.70;1.60;;;;;;;19.57;74.03;96722.53;4992532;28;20198;-65
2021/05/13 00:43:58;;;;;;;1.90;1.80;;;;;;;19.57;73.53;96714.88;5006825;28;20663;-64
2021/05/13 00:46:25;;;;;;;1.80;1.70;;;;;;;19.57;74.03;96713.16;5009652;28;20203;-66
2021/05/13 00:49:00;;;;;;;1.77;1.67;;;;;;;19.57;73.95;96709.78;5010214;28;20230;-66
2021/05/13 00:51:27;;;;;;;1.73;1.63;;;;;;;19.57;74.00;96710.63;5010120;28;20740;-67
2021/05/13 00:53:54;;;;;;;1.80;1.70;;;;;;;19.57;73.97;96699.59;5010628;28;20260;-66
2021/05/13 00:56:21;;;;;;;1.90;1.80;;;;;;;19.57;73.77;96708.06;5010082;28;20736;-66
2021/05/13 00:58:49;;;;;;;2.13;1.70;;;;;;;19.58;74.02;96709.81;4976154;28;20498;-67
2021/05/13 01:01:17;;;;;;;1.80;1.70;;;;;;;19.59;73.76;96708.97;4976403;28;20742;-65
2021/05/13 01:03:45;;;;;;;1.80;1.70;;;;;;;19.60;73.58;96700.50;5007606;28;20392;-66
2021/05/13 01:06:12;;;;;;;1.77;1.67;;;;;;;19.62;73.74;96700.53;5007826;28;20202;-66
2021/05/13 01:08:40;;;;;;;1.70;1.60;;;;;;;18.40;73.62;96485.28;5011578;28;20305;-64
2021/05/13 01:11:09;;;;;;;1.70;1.60;;;;;;;19.64;73.44;96696.34;4993675;28;20651;-65
2021/05/13 01:14:42;;;;;;;1.70;1.60;;;;;;;19.64;73.59;96692.13;5008327;28;20203;-66
2021/05/13 01:17:22;;;;;;;1.90;1.80;;;;;;;19.66;73.37;96684.50;5002981;28;20219;-66
2021/05/13 01:19:46;;;;;;;1.80;1.70;;;;;;;19.67;73.33;96681.13;5009384;28;20571;-67
2021/05/13 01:22:14;;;;;;;1.90;1.80;;;;;;;19.68;73.28;96676.06;4996446;28;20671;-67
2021/05/13 01:24:40;;;;;;;1.63;1.53;;;;;;;19.70;73.11;96681.19;4996195;28;20618;-66
2021/05/13 01:27:07;;;;;;;1.80;1.70;;;;;;;17.28;72.84;96262.94;5013880;28;20229;-66
2021/05/13 01:29:34;;;;;;;1.77;1.67;;;;;;;19.71;73.03;96681.22;5013074;28;20269;-66
2021/05/13 01:32:01;;;;;;;1.90;1.80;;;;;;;19.73;72.93;96686.38;4996259;28;20198;-65
2021/05/13 01:34:28;;;;;;;1.57;1.47;;;;;;;19.74;72.99;96683.84;4995593;28;20249;-64
2021/05/13 01:36:54;;;;;;;1.87;1.67;;;;;;;19.75;72.79;96687.28;5013229;28;20240;-65
2021/05/13 01:39:22;;;;;;;1.77;1.67;;;;;;;18.33;72.66;96440.16;5012883;28;20660;-64
2021/05/13 01:41:48;;;;;;;1.73;1.63;;;;;;;18.45;72.76;96478.66;5013127;28;20202;-64
2021/05/13 01:44:15;;;;;;;1.93;1.77;;;;;;;19.56;72.29;96652.84;5012473;28;20210;-66
2021/05/13 01:46:42;;;;;;;1.70;1.60;;;;;;;19.78;72.40;96684.78;5013060;28;20226;-64
2021/05/13 01:49:21;;;;;;;1.97;1.87;;;;;;;19.37;72.40;96611.63;5012945;28;20237;-64
2021/05/13 01:51:48;;;;;;;1.70;1.60;;;;;;;19.60;72.35;96646.13;4994566;28;20221;-65
2021/05/13 01:54:17;;;;;;;1.67;1.57;;;;;;;19.80;72.20;96667.81;4979149;28;20256;-64
2021/05/13 01:56:43;;;;;;;1.60;1.50;;;;;;;19.80;72.11;96668.69;5012677;28;20548;-65
2021/05/13 01:59:10;;;;;;;1.67;1.57;;;;;;;17.06;71.72;96204.84;5013570;28;20246;-65
2021/05/13 02:01:36;;;;;;;1.90;1.80;;;;;;;18.92;72.26;96504.41;5009696;28;20285;-65
2021/05/13 02:04:03;;;;;;;1.60;1.50;;;;;;;19.43;72.11;96586.28;5013278;28;20209;-65
2021/05/13 02:06:30;;;;;;;1.80;1.70;;;;;;;19.83;72.00;96650.91;5010356;28;20291;-64
2021/05/13 02:08:57;;;;;;;1.80;1.70;;;;;;;19.51;71.89;96597.50;5012816;28;20299;-64
2021/05/13 02:11:23;;;;;;;1.80;1.70;;;;;;;19.85;71.69;96656.91;4995720;28;20238;-64
2021/05/13 02:13:50;;;;;;;1.90;1.80;;;;;;;19.85;71.80;96656.03;5012752;28;20651;-64
2021/05/13 02:16:17;;;;;;;1.73;1.63;;;;;;;19.85;71.37;96667.13;5009642;28;20642;-64
2021/05/13 02:18:43;;;;;;;1.50;1.40;;;;;;;19.86;71.72;96655.22;5011988;28;20277;-64
2021/05/13 02:21:11;;;;;;;1.80;1.70;;;;;;;18.67;71.68;96458.84;5011800;28;20668;-65
2021/05/13 02:23:38;;;;;;;1.60;1.50;;;;;;;16.85;71.47;96197.56;5005576;28;20578;-66
2021/05/13 02:26:05;;;;;;;1.73;1.63;;;;;;;19.87;71.87;96649.31;5012560;28;20206;-66
2021/05/13 02:28:31;;;;;;;1.70;1.60;;;;;;;19.87;71.34;96644.22;5011856;28;20223;-66
2021/05/13 02:30:58;;;;;;;1.67;1.57;;;;;;;19.87;71.14;96645.03;5016103;28;20237;-66
2021/05/13 02:33:24;;;;;;;1.77;1.67;;;;;;;19.87;71.50;96645.03;5010238;28;20679;-66
2021/05/13 02:35:51;;;;;;;1.70;1.60;;;;;;;19.89;71.09;96639.97;5012149;28;20276;-66
2021/05/13 02:38:17;;;;;;;1.80;1.70;;;;;;;18.32;71.32;96370.63;5012222;28;20249;-66
2021/05/13 02:40:44;;;;;;;1.70;1.60;;;;;;;19.89;71.27;96634.88;5012261;28;20253;-67
2021/05/13 02:43:10;;;;;;;1.60;1.50;;;;;;;19.88;71.50;96634.03;5013216;28;20210;-66
2021/05/13 02:45:37;;;;;;;2.07;1.60;;;;;;;19.90;71.01;96641.72;5011764;28;20202;-66
2021/05/13 02:48:04;;;;;;;1.90;1.80;;;;;;;19.88;71.07;96636.59;5011670;28;20262;-66
2021/05/13 02:50:31;;;;;;;1.73;1.63;;;;;;;19.22;71.16;96595.94;5011408;28;20730;-66
2021/05/13 02:52:57;;;;;;;1.93;1.83;;;;;;;19.89;71.29;96638.31;5011811;28;20199;-64
2021/05/13 02:55:24;;;;;;;1.57;1.47;;;;;;;19.90;71.08;96639.16;5012314;28;20270;-64
2021/05/13 02:57:50;;;;;;;1.93;1.70;;;;;;;19.90;70.88;96639.16;5008144;28;20211;-65
2021/05/13 03:02:44;;;;;;;1.90;1.80;;;;;;;19.90;70.99;96641.72;4996645;28;20252;-65
2021/05/13 03:05:12;;;;;;;1.67;1.57;;;;;;;19.91;70.56;96770.94;4995423;28;20671;-65
2021/05/13 03:07:50;;;;;;;1.73;1.63;;;;;;;19.90;70.88;96636.63;5011385;28;20301;-64
2021/05/13 03:10:34;;;;;;;1.90;1.80;;;;;;;19.91;70.81;96640.88;4977174;28;20253;-64
2021/05/13 03:13:01;;;;;;;1.80;1.70;;;;;;;19.51;70.87;96574.56;5013134;28;20622;-65
2021/05/13 03:15:29;;;;;;;1.80;1.70;;;;;;;19.02;70.81;96487.66;5000935;28;20213;-65
2021/05/13 03:17:55;;;;;;;1.83;1.70;;;;;;;19.68;70.76;96604.69;4994095;28;20207;-65
2021/05/13 03:20:27;;;;;;;1.90;1.80;;;;;;;19.91;70.77;96644.31;5011269;28;20741;-65
2021/05/13 03:22:57;;;;;;;1.97;1.77;;;;;;;19.91;70.81;96646.84;5014390;28;20237;-65
2021/05/13 03:25:30;;;;;;;1.57;1.47;;;;;;;19.91;70.28;96640.88;5015668;28;20284;-65
2021/05/13 03:28:18;;;;;;;1.60;1.50;;;;;;;19.91;70.68;96636.66;5011111;28;20272;-65
2021/05/13 03:30:45;;;;;;;1.87;1.77;;;;;;;19.92;70.75;96634.94;5009534;28;20638;-65
2021/05/13 03:33:12;;;;;;;1.87;1.70;;;;;;;18.15;70.48;96329.53;5010902;28;20261;-65
2021/05/13 03:35:39;;;;;;;1.90;1.80;;;;;;;19.94;70.45;96630.75;4993312;28;20249;-65
2021/05/13 03:38:06;;;;;;;1.80;1.70;;;;;;;19.93;70.63;96622.22;5011388;28;20586;-65
2021/05/13 03:40:33;;;;;;;1.70;1.60;;;;;;;19.93;70.54;96626.50;4994246;28;20572;-65
2021/05/13 03:43:00;;;;;;;1.93;1.83;;;;;;;18.37;70.72;96416.50;5011945;28;20285;-65
2021/05/13 03:45:27;;;;;;;1.63;1.53;;;;;;;19.91;70.44;96626.44;5011065;28;20206;-65
2021/05/13 03:47:54;;;;;;;1.70;1.60;;;;;;;19.92;70.49;96628.16;5011169;28;20202;-65
2021/05/13 03:50:21;;;;;;;1.70;1.60;;;;;;;19.04;70.97;96494.50;5056694;22;20278;-64
2021/05/13 03:52:47;;;;;;;1.80;1.70;;;;;;;16.29;70.65;96002.47;5032673;28;20239;-64
2021/05/13 03:55:14;;;;;;;1.73;1.63;;;;;;;19.91;70.46;96623.03;5051480;28;20201;-63
2021/05/13 03:57:42;;;;;;;1.80;1.70;;;;;;;18.68;70.41;96416.47;5069002;28;20200;-65
2021/05/13 04:00:12;;;;;;;1.70;1.60;;;;;;;18.87;70.39;96447.44;5060414;28;20262;-64
2021/05/13 04:02:40;;;;;;;1.73;1.63;;;;;;;19.89;70.38;96625.56;5045341;28;20197;-64
2021/05/13 04:05:07;;;;;;;1.70;1.60;;;;;;;19.92;70.38;96622.19;5049734;28;20240;-64
2021/05/13 04:07:36;;;;;;;1.70;1.60;;;;;;;17.42;70.23;96196.47;5049710;28;20255;-65
2021/05/13 04:10:04;;;;;;;1.50;1.40;;;;;;;19.36;70.41;96536.03;5049889;28;20708;-64
2021/05/13 04:12:31;;;;;;;1.87;1.77;;;;;;;16.77;70.03;96089.94;5045083;28;20652;-65
2021/05/13 04:14:59;;;;;;;1.80;1.70;;;;;;;17.30;70.30;96178.41;5036982;28;20662;-64
2021/05/13 04:17:26;;;;;;;1.80;1.70;;;;;;;18.06;69.96;96367.47;5049838;28;20585;-62
2021/05/13 04:19:52;;;;;;;1.73;1.63;;;;;;;19.70;70.08;96590.31;5049823;28;20217;-64
2021/05/13 04:22:19;;;;;;;1.60;1.50;;;;;;;19.91;70.33;96629.00;5050036;28;20251;-64
2021/05/13 04:24:45;;;;;;;1.60;1.50;;;;;;;19.92;70.49;96629.84;5045839;28;20650;-63
2021/05/13 04:27:12;;;;;;;1.70;1.60;;;;;;;19.36;70.42;96539.41;5049437;28;20205;-64
2021/05/13 04:29:39;;;;;;;1.60;1.50;;;;;;;19.88;70.41;96630.63;5049757;28;20226;-64
2021/05/13 04:32:05;;;;;;;1.87;1.77;;;;;;;18.92;70.41;96467.91;5048582;28;20677;-64
2021/05/13 04:34:32;;;;;;;1.57;1.47;;;;;;;14.44;69.94;95756.91;5049303;28;20226;-63
2021/05/13 04:36:59;;;;;;;1.90;1.80;;;;;;;19.46;70.48;96560.88;5048614;28;20525;-64
2021/05/13 04:39:25;;;;;;;1.90;1.80;;;;;;;19.76;70.61;96615.94;5049001;28;20285;-64
2021/05/13 04:41:52;;;;;;;1.70;1.60;;;;;;;18.23;70.75;96356.84;5048952;28;20228;-64
2021/05/13 04:44:19;;;;;;;1.60;1.50;;;;;;;19.09;70.70;96504.78;5049132;28;20193;-62
2021/05/13 04:46:45;;;;;;;1.80;1.70;;;;;;;19.42;70.84;96567.56;5049273;28;20248;-61
2021/05/13 04:49:16;;;;;;;1.70;1.60;;;;;;;18.50;70.66;96408.41;5037130;28;20215;-63
2021/05/13 04:51:44;;;;;;;1.80;1.70;;;;;;;19.65;70.96;96606.31;5049626;28;20196;-64
2021/05/13 04:54:12;;;;;;;1.70;1.60;;;;;;;18.19;70.84;96353.38;5046823;28;20242;-63
2021/05/13 04:56:39;;;;;;;2.13;1.80;;;;;;;19.49;71.03;96586.41;5044413;28;20303;-64
2021/05/13 04:59:05;;;;;;;3.00;1.40;;;;;;;19.67;71.31;96614.84;5049512;28;20254;-63
2021/05/13 05:01:32;;;;;;;1.60;1.50;;;;;;;19.72;71.40;96631.97;5049262;28;20197;-64
2021/05/13 05:03:59;;;;;;;1.60;1.50;;;;;;;18.74;71.57;96458.16;5046650;28;20576;-64
2021/05/13 05:06:26;;;;;;;1.80;1.70;;;;;;;19.70;71.21;96614.91;5048955;28;20257;-64
2021/05/13 05:08:53;;;;;;;1.57;1.47;;;;;;;18.90;71.29;96484.81;5049403;28;20648;-64
2021/05/13 05:11:20;;;;;;;1.60;1.50;;;;;;;19.71;71.27;96629.38;5046062;28;20279;-64
2021/05/13 05:13:47;;;;;;;1.70;1.60;;;;;;;19.69;71.34;96614.06;5048161;28;20204;-64
2021/05/13 05:16:14;;;;;;;1.80;1.70;;;;;;;19.67;71.38;96617.41;5048582;28;20276;-64
2021/05/13 05:18:40;;;;;;;1.70;1.60;;;;;;;19.68;71.18;96619.97;5049168;28;20258;-64
2021/05/13 05:21:07;;;;;;;1.70;1.60;;;;;;;19.69;71.27;96620.84;5047207;28;20306;-64
2021/05/13 05:23:34;;;;;;;1.80;1.70;;;;;;;16.69;71.09;96119.31;5046540;28;20232;-64
2021/05/13 05:26:00;;;;;;;2.00;1.90;;;;;;;19.69;71.24;96615.75;5048498;28;20623;-64
2021/05/13 05:28:32;;;;;;;1.80;1.70;;;;;;;19.69;71.38;96619.16;5048239;28;20197;-64
2021/05/13 05:30:58;;;;;;;1.90;1.80;;;;;;;19.20;71.61;96552.59;5048638;28;20777;-64
2021/05/13 05:33:25;;;;;;;1.80;1.70;;;;;;;18.80;71.63;96460.84;5045596;28;20261;-63
2021/05/13 05:35:52;;;;;;;1.80;1.70;;;;;;;19.67;71.51;96617.41;5049610;28;20624;-64
2021/05/13 05:38:18;;;;;;;1.97;1.87;;;;;;;19.71;71.69;96617.50;5048605;28;20198;-64
2021/05/13 05:40:45;;;;;;;1.70;1.60;;;;;;;19.71;71.60;96619.19;5048777;28;20217;-64
2021/05/13 05:43:12;;;;;;;2.40;2.20;;;;;;;19.52;71.79;96586.47;5035894;28;20201;-63
2021/05/13 05:45:38;;;;;;;2.30;2.20;;;;;;;19.72;71.79;96621.75;5041527;28;20243;-64
2021/05/13 05:48:05;;;;;;;2.07;1.87;;;;;;;19.46;71.36;96576.16;5046072;28;20197;-62
2021/05/13 05:50:34;;;;;;;2.30;2.10;;;;;;;19.66;71.49;96603.78;5047385;28;20301;-65
2021/05/13 05:53:01;;;;;;;2.00;1.90;;;;;;;19.74;71.45;96604.81;5028838;28;20201;-64
2021/05/13 05:55:28;;;;;;;1.90;1.80;;;;;;;19.75;71.56;96611.63;5041376;28;20653;-62
2021/05/13 05:57:55;;;;;;;1.80;1.70;;;;;;;19.73;71.48;96597.16;5044271;28;20243;-62
2021/05/13 06:00:22;;;;;;;2.00;1.90;;;;;;;19.77;71.41;96607.44;5047312;28;20221;-64
2021/05/13 06:02:48;;;;;;;2.40;2.20;;;;;;;19.75;71.40;96601.44;5049770;28;20209;-65
2021/05/13 06:05:15;;;;;;;1.97;1.87;;;;;;;19.76;71.31;96603.19;5050809;28;20229;-63
2021/05/13 06:07:42;;;;;;;2.00;1.80;;;;;;;19.77;71.44;96599.78;5050652;28;20201;-64
2021/05/13 06:10:11;;;;;;;1.83;1.73;;;;;;;19.80;71.13;96606.63;5052167;28;20220;-62
2021/05/13 06:12:38;;;;;;;1.90;1.60;;;;;;;19.02;71.12;96470.69;5047783;28;20205;-65
2021/05/13 06:15:12;;;;;;;2.00;1.90;;;;;;;19.65;71.01;96580.81;5042923;28;20200;-63
2021/05/13 06:17:39;;;;;;;2.20;2.00;;;;;;;19.81;71.05;96609.22;5046906;28;20238;-65
2021/05/13 06:20:08;;;;;;;2.00;1.90;;;;;;;19.78;71.00;96595.56;5051816;28;20213;-65
2021/05/13 06:22:35;;;;;;;2.17;1.97;;;;;;;19.82;71.23;96605.84;5049884;28;20246;-65
2021/05/13 06:25:01;;;;;;;2.20;2.00;;;;;;;19.81;70.98;96604.13;5043417;28;20243;-65
2021/05/13 06:27:28;;;;;;;2.10;2.00;;;;;;;19.84;70.99;96608.44;5039552;28;20266;-68
2021/05/13 06:29:55;;;;;;;2.33;2.13;;;;;;;19.01;71.01;96470.66;5051606;28;20310;-62
2021/05/13 06:32:22;;;;;;;1.90;1.80;;;;;;;19.86;70.49;96601.66;5050825;28;20241;-64
2021/05/13 06:34:48;;;;;;;2.00;1.90;;;;;;;19.86;70.87;96605.09;5049970;28;20209;-65
2021/05/13 06:37:15;;;;;;;1.90;1.80;;;;;;;19.87;70.46;96601.69;5050662;28;20220;-64
2021/05/13 06:39:42;;;;;;;2.10;2.00;;;;;;;19.88;70.49;96611.09;5051904;28;20220;-65
2021/05/13 06:42:08;;;;;;;1.90;1.80;;;;;;;19.67;70.58;96567.28;5050528;28;20197;-65
2021/05/13 06:44:35;;;;;;;1.80;1.70;;;;;;;19.74;70.78;96578.47;5049897;28;20201;-62
2021/05/13 06:47:02;;;;;;;2.00;1.90;;;;;;;19.66;70.79;96570.66;5049646;28;20232;-66
2021/05/13 06:49:28;;;;;;;1.87;1.77;;;;;;;19.51;70.62;96537.19;5050751;28;20225;-65
2021/05/13 06:51:55;;;;;;;2.07;1.90;;;;;;;19.74;70.71;96570.81;5049936;28;20222;-62
2021/05/13 06:54:21;;;;;;;2.13;1.93;;;;;;;19.73;70.30;96574.19;5050213;28;20246;-65
2021/05/13 06:56:49;;;;;;;2.10;1.90;;;;;;;19.90;70.64;96609.41;5048551;28;20201;-67
2021/05/13 06:59:16;;;;;;;2.10;1.90;;;;;;;19.90;70.57;96606.84;5048660;28;20742;-64
2021/05/13 07:01:43;;;;;;;2.10;1.97;;;;;;;19.91;70.48;96607.72;5047065;28;20197;-65
2021/05/13 07:04:09;;;;;;;2.07;1.87;;;;;;;19.90;70.17;96606.03;5029420;28;20671;-64
2021/05/13 07:06:37;;;;;;;2.00;1.90;;;;;;;19.88;70.43;96600.03;5033204;28;20209;-65
2021/05/13 07:09:05;;;;;;;7.63;1.70;;;;;;;19.44;70.37;96532.81;5029506;28;20205;-64
2021/05/13 07:11:32;;;;;;;2.10;2.00;;;;;;;19.53;70.19;96544.88;5029338;28;20205;-65
2021/05/13 07:13:58;;;;;;;1.80;1.70;;;;;;;19.93;70.47;96612.03;5031863;28;20200;-64
2021/05/13 07:16:29;;;;;;;2.43;2.00;;;;;;;19.94;70.55;96602.69;5030456;28;20621;-63
2021/05/13 07:18:58;;;;;;;1.83;1.73;;;;;;;19.93;69.94;96606.09;5029384;28;20209;-64
2021/05/13 07:21:24;;;;;;;2.00;1.90;;;;;;;19.64;70.23;96557.03;5031725;28;20611;-61
2021/05/13 07:23:51;;;;;;;1.73;1.53;;;;;;;19.87;69.82;96596.59;5030446;28;20241;-62
2021/05/13 07:26:18;;;;;;;1.90;1.80;;;;;;;19.95;69.84;96614.59;5033699;28;20244;-64
2021/05/13 07:28:44;;;;;;;2.10;1.90;;;;;;;19.79;70.43;96585.41;5034178;28;20628;-63
2021/05/13 07:31:11;;;;;;;2.00;1.90;;;;;;;19.95;69.68;96607.81;5031221;28;20670;-65
2021/05/13 07:33:38;;;;;;;1.90;1.80;;;;;;;19.96;69.83;96607.00;5033359;28;20303;-64
2021/05/13 07:36:05;;;;;;;1.93;1.83;;;;;;;19.96;69.98;96606.16;5032596;28;20237;-65
2021/05/13 07:38:32;;;;;;;1.80;1.70;;;;;;;19.95;69.93;96600.19;5033387;28;20210;-64
2021/05/13 07:41:03;;;;;;;1.73;1.40;;;;;;;19.96;69.81;96598.50;5032155;28;20221;-64
2021/05/13 07:43:30;;;;;;;1.80;1.70;;;;;;;19.78;69.76;96568.38;5034385;28;20207;-64
2021/05/13 07:45:56;;;;;;;1.80;1.70;;;;;;;19.96;69.93;96595.94;5032614;28;20239;-64
2021/05/13 07:48:25;;;;;;;1.83;1.73;;;;;;;19.96;69.63;96603.59;5032659;28;20201;-64
2021/05/13 07:50:52;;;;;;;1.87;1.77;;;;;;;19.50;69.75;96519.31;5020047;28;20252;-64
2021/05/13 07:53:18;;;;;;;1.77;1.67;;;;;;;19.86;69.61;96588.91;5028430;28;20209;-64
2021/05/13 07:55:45;;;;;;;1.60;1.50;;;;;;;19.93;69.74;96601.81;5029692;28;20210;-63
2021/05/13 07:58:11;;;;;;;1.70;1.60;;;;;;;19.93;69.73;96606.09;5032575;28;20236;-64
2021/05/13 08:00:39;;;;;;;1.60;1.50;;;;;;;19.91;69.74;96600.94;5031943;28;20249;-65
2021/05/13 08:03:06;;;;;;;3.53;1.70;;;;;;;19.57;69.60;96547.53;5028726;28;20288;-64
2021/05/13 08:05:33;;;;;;;1.87;1.77;;;;;;;19.61;69.54;96554.41;5013283;28;20213;-65
2021/05/13 08:08:00;;;;;;;1.60;1.50;;;;;;;19.88;69.74;96595.78;5015594;28;20665;-64
2021/05/13 08:10:26;;;;;;;1.60;1.50;;;;;;;19.22;69.70;96487.25;5033233;28;21275;-63
2021/05/13 08:12:53;;;;;;;1.80;1.70;;;;;;;19.85;69.85;96590.63;5018342;28;20743;-64
2021/05/13 08:15:19;;;;;;;3.37;1.73;;;;;;;19.40;69.94;96515.75;5032846;28;20205;-64
2021/05/13 08:17:46;;;;;;;1.70;1.60;;;;;;;19.84;70.10;96601.63;5032739;28;20267;-66
2021/05/13 08:20:13;;;;;;;1.70;1.60;;;;;;;19.83;70.06;96593.94;5032073;28;20230;-64
2021/05/13 08:22:41;;;;;;;1.77;1.67;;;;;;;19.81;70.14;96593.91;5032555;28;20213;-65
2021/05/13 08:25:08;;;;;;;1.70;1.60;;;;;;;19.80;70.18;96592.22;5029903;28;20259;-65
2021/05/13 08:27:35;;;;;;;1.60;1.50;;;;;;;19.79;70.60;96590.50;5030622;28;20255;-63
2021/05/13 08:30:04;;;;;;;2.00;1.80;;;;;;;19.77;70.28;96594.69;5031671;28;20314;-64
2021/05/13 08:32:30;;;;;;;1.53;1.43;;;;;;;19.69;70.37;96580.06;5030881;28;20204;-64
2021/05/13 08:34:57;;;;;;;1.70;1.60;;;;;;;19.76;70.55;96589.56;5031828;28;20236;-65
2021/05/13 08:37:24;;;;;;;1.60;1.50;;;;;;;19.11;70.73;96485.31;5029259;28;20204;-64
2021/05/13 08:39:50;;;;;;;1.90;1.70;;;;;;;19.75;70.66;96587.84;5030490;28;20295;-65
2021/05/13 08:42:17;;;;;;;1.73;1.50;;;;;;;19.57;70.52;96560.25;5030851;28;20280;-65
2021/05/13 08:44:44;;;;;;;1.33;1.33;;;;;;;19.57;70.75;96560.25;5032088;28;20224;-64
2021/05/13 08:47:11;;;;;;;1.73;1.63;;;;;;;19.73;70.64;96589.50;5030136;28;20267;-65
2021/05/13 08:49:38;;;;;;;1.40;1.30;;;;;;;19.59;70.66;96568.81;5031995;28;20330;-64
2021/05/13 08:52:08;;;;;;;1.70;1.60;;;;;;;19.24;70.82;96507.66;5016900;28;20254;-65
2021/05/13 08:54:34;;;;;;;1.70;1.60;;;;;;;19.73;71.03;96592.91;5030051;28;20206;-62
2021/05/13 08:57:02;;;;;;;1.50;1.40;;;;;;;19.64;70.98;96574.00;5026151;28;20632;-64
2021/05/13 08:59:28;;;;;;;1.67;1.57;;;;;;;19.75;71.13;96590.41;5028031;28;20217;-64
2021/05/13 09:01:59;;;;;;;1.67;1.57;;;;;;;19.74;70.83;96584.44;5032032;28;20666;-63
2021/05/13 09:04:40;;;;;;;1.93;1.70;;;;;;;19.68;71.03;96571.56;5027008;28;20220;-66
2021/05/13 09:07:20;;;;;;;1.50;1.40;;;;;;;19.76;70.96;96582.78;5031995;28;20303;-64
2021/05/13 09:09:56;;;;;;;2.60;1.50;;;;;;;19.77;71.00;96587.03;5028133;28;20791;-64
2021/05/13 09:12:39;;;;;;;1.60;1.50;;;;;;;19.70;70.94;96566.50;5029637;28;20299;-64
2021/05/13 09:15:14;;;;;;;1.50;1.40;;;;;;;19.79;70.80;96576.88;5027829;28;20217;-64
2021/05/13 09:17:42;;;;;;;1.50;1.40;;;;;;;19.79;70.73;96572.66;5028043;28;20212;-64
2021/05/13 09:20:21;;;;;;;1.60;1.50;;;;;;;19.80;70.87;96571.81;5030098;28;20229;-65
2021/05/13 09:22:48;;;;;;;1.73;1.63;;;;;;;19.53;70.95;96524.47;5027001;28;20201;-64
2021/05/13 09:25:14;;;;;;;1.60;1.50;;;;;;;19.65;70.75;96546.00;5012186;28;20667;-64
2021/05/13 09:27:43;;;;;;;1.50;1.40;;;;;;;17.78;70.51;96222.78;5028585;28;20255;-64
2021/05/13 09:30:23;;;;;;;1.60;1.50;;;;;;;19.84;70.54;96576.13;5030042;28;20667;-65
2021/05/13 09:32:51;;;;;;;1.43;1.33;;;;;;;19.85;70.56;96577.00;5030602;28;20553;-65
2021/05/13 09:35:25;;;;;;;1.53;1.43;;;;;;;19.82;70.52;96567.63;5032232;28;20267;-64
2021/05/13 09:37:52;;;;;;;1.67;1.57;;;;;;;19.86;70.33;96571.94;5031352;28;20260;-66
2021/05/13 09:40:43;;;;;;;1.60;1.50;;;;;;;19.88;70.40;96574.53;5034692;28;20220;-65
2021/05/13 09:43:16;;;;;;;1.63;1.53;;;;;;;19.88;70.33;96570.28;5022975;28;20213;-63
2021/05/13 09:45:46;;;;;;;1.40;1.30;;;;;;;19.89;70.23;96573.69;5035276;28;20212;-64
2021/05/13 09:48:32;;;;;;;1.57;1.40;;;;;;;19.89;70.34;96566.03;5034354;28;20201;-64
2021/05/13 09:51:20;;;;;;;1.40;1.30;;;;;;;19.91;70.11;96566.94;5036068;28;20252;-64
2021/05/13 09:54:09;;;;;;;1.40;1.30;;;;;;;19.91;70.11;96564.38;5032305;28;20301;-65
2021/05/13 09:56:38;;;;;;;1.60;1.50;;;;;;;19.91;70.11;96570.34;5032624;28;20317;-64
2021/05/13 09:59:19;;;;;;;1.40;1.30;;;;;;;19.92;69.87;96568.66;5034141;28;20617;-66
2021/05/13 10:01:47;;;;;;;1.60;1.50;;;;;;;19.73;69.99;96529.19;5032993;28;20205;-64
2021/05/13 10:04:13;;;;;;;1.60;1.50;;;;;;;19.94;69.83;96556.78;5037788;28;20215;-65
2021/05/13 10:06:40;;;;;;;1.60;1.50;;;;;;;19.93;69.84;96561.03;5035621;28;20212;-64
2021/05/13 10:09:07;;;;;;;1.40;1.30;;;;;;;19.62;69.97;96506.84;5034903;28;20197;-64
2021/05/13 10:11:34;;;;;;;1.30;1.30;;;;;;;19.94;69.90;96554.25;5031277;28;20224;-65
2021/05/13 10:14:01;;;;;;;1.40;1.30;;;;;;;19.95;69.92;96546.63;5021415;28;20201;-65
2021/05/13 10:16:28;;;;;;;1.80;1.50;;;;;;;19.94;69.79;96547.47;5017634;28;20206;-64
2021/05/13 10:18:58;;;;;;;1.70;1.60;;;;;;;19.96;69.73;96553.44;5032619;28;20217;-63
2021/05/13 10:21:26;;;;;;;1.33;1.27;;;;;;;19.40;69.58;96456.28;5014203;28;20639;-63
2021/05/13 10:23:54;;;;;;;1.50;1.40;;;;;;;19.95;69.31;96541.53;5019590;28;20225;-66
2021/05/13 10:26:30;;;;;;;1.20;1.17;;;;;;;19.96;69.43;96543.25;5017157;28;21059;-65
2021/05/13 10:28:56;;;;;;;1.50;1.40;;;;;;;19.98;69.71;96540.72;5031503;28;20208;-64
2021/05/13 10:31:35;;;;;;;1.30;1.20;;;;;;;19.98;69.59;96539.88;5031877;28;20466;-64
2021/05/13 10:34:02;;;;;;;1.40;1.30;;;;;;;19.97;69.46;96533.91;5033456;28;20205;-64
2021/05/13 10:36:29;;;;;;;1.60;1.50;;;;;;;19.78;69.25;96496.97;5033428;28;20633;-64
2021/05/13 10:39:08;;;;;;;1.20;1.20;;;;;;;19.98;69.36;96537.34;5031512;28;20205;-65
2021/05/13 10:41:39;;;;;;;1.40;1.30;;;;;;;19.98;69.43;96531.38;5032596;28;20272;-63
2021/05/13 10:44:11;;;;;;;1.40;1.30;;;;;;;19.98;69.44;96528.84;5031650;28;20307;-62
2021/05/13 10:46:40;;;;;;;1.37;1.27;;;;;;;19.99;69.45;96533.09;5029983;28;20263;-68
2021/05/13 10:49:20;;;;;;;1.40;1.30;;;;;;;20.00;69.42;96564.56;5030138;28;20205;-64
2021/05/13 10:51:51;;;;;;;1.40;1.30;;;;;;;19.98;69.27;96528.84;5033251;28;20299;-65
2021/05/13 10:54:29;;;;;;;1.53;1.43;;;;;;;19.99;69.48;96528.00;5029971;28;20202;-63
2021/05/13 10:57:08;;;;;;;1.40;1.30;;;;;;;20.01;69.33;96529.75;5032808;28;21672;-65
2021/05/13 10:59:35;;;;;;;1.50;1.40;;;;;;;19.99;69.50;96527.16;5035171;28;20232;-64
2021/05/13 11:02:02;;;;;;;1.33;1.30;;;;;;;19.99;69.27;96519.50;5032244;28;20205;-65
2021/05/13 11:04:29;;;;;;;1.40;1.30;;;;;;;19.99;69.11;96520.34;5028617;28;20301;-61
2021/05/13 11:06:56;;;;;;;1.27;1.23;;;;;;;19.99;69.08;96516.97;5033157;28;20283;-65
2021/05/13 11:09:44;;;;;;;1.40;1.30;;;;;;;19.98;69.24;96511.81;5031421;28;20312;-65
2021/05/13 11:12:14;;;;;;;1.60;1.50;;;;;;;19.98;69.12;96515.22;5033177;28;20248;-65
2021/05/13 11:20:22;;;;;;;2.37;1.40;;;;;;;19.96;69.72;96515.19;5074999;22;20841;-66
2021/05/13 11:23:17;;;;;;;1.80;1.57;;;;;;;19.94;69.62;96514.31;5024606;28;20196;-67
2021/05/13 11:25:57;;;;;;;1.47;1.37;;;;;;;19.93;69.34;96520.22;5041407;28;20197;-66
2021/05/13 11:28:25;;;;;;;1.60;1.50;;;;;;;19.92;69.49;96510.00;5019404;28;20222;-65
2021/05/13 11:31:09;;;;;;;1.67;1.57;;;;;;;19.91;69.31;96514.25;5017795;28;20214;-67
2021/05/13 11:33:57;;;;;;;1.50;1.40;;;;;;;19.89;69.57;96505.72;5024878;28;20193;-67
2021/05/13 11:36:24;;;;;;;1.60;1.50;;;;;;;19.88;69.58;96498.91;5018724;28;20222;-67
2021/05/13 11:39:04;;;;;;;1.40;1.30;;;;;;;19.87;69.59;96504.81;5017508;28;20709;-66
2021/05/13 11:41:30;;;;;;;1.70;1.60;;;;;;;19.85;69.71;96503.94;5015885;28;20230;-66
2021/05/13 11:43:57;;;;;;;1.40;1.30;;;;;;;19.84;69.83;96502.19;5018046;28;20195;-66
2021/05/13 11:46:24;;;;;;;1.57;1.47;;;;;;;19.83;69.86;96503.03;5019911;28;20321;-68
2021/05/13 11:48:52;;;;;;;1.50;1.40;;;;;;;19.82;69.82;96506.44;5023252;28;20308;-66
2021/05/13 11:51:26;;;;;;;1.50;1.40;;;;;;;19.82;69.82;96503.00;5017640;28;20749;-66